createdAt,value
2023-04-28T00:03:10.693Z,98247.84
2023-04-28T00:08:14.896Z,98239.28
2023-04-28T00:13:17.584Z,98238.16
2023-04-28T00:18:20.365Z,98236.06
2023-04-28T00:23:24.500Z,98225.50
2023-04-28T00:28:34.263Z,98219.47
2023-04-28T00:33:38.292Z,98212.44
2023-04-28T00:38:42.464Z,98210.75
2023-04-28T00:43:46.858Z,98199.56
2023-04-28T00:48:50.706Z,98192.66
2023-04-28T00:53:55.553Z,98186.09
2023-04-28T00:58:58.712Z,98184.69
2023-04-28T01:04:02.010Z,98179.34
2023-04-28T01:09:07.573Z,98173.84
2023-04-28T01:14:10.756Z,98180.75
2023-04-28T01:19:21.596Z,98168.81
2023-04-28T01:24:26.220Z,98161.78
2023-04-28T01:29:29.696Z,98143.41
2023-04-28T01:34:32.443Z,98143.13
2023-04-28T01:39:36.649Z,98130.34
2023-04-28T01:44:40.064Z,98136.94
2023-04-28T01:49:42.824Z,98138.34
2023-04-28T01:54:46.998Z,98133.28
2023-04-28T01:59:50.126Z,98138.91
2023-04-28T02:04:53.764Z,98130.94
2023-04-28T02:09:58.378Z,98121.63
2023-04-28T02:15:01.090Z,98116.88
2023-04-28T02:20:05.340Z,98116.16
2023-04-28T02:25:10.784Z,98115.75
2023-04-28T02:30:14.329Z,98098.22
2023-04-28T02:35:17.196Z,98086.16
2023-04-28T02:40:21.662Z,98099.59
2023-04-28T02:45:24.396Z,98097.09
2023-04-28T02:50:27.196Z,98093.47
2023-04-28T02:55:32.106Z,98089.25
2023-04-28T03:00:34.958Z,98089.38
2023-04-28T03:05:37.827Z,98091.03
2023-04-28T03:10:41.893Z,98096.94
2023-04-28T03:15:44.554Z,98099.47
2023-04-28T03:20:47.634Z,98085.19
2023-04-28T03:25:51.729Z,98081.50
2023-04-28T03:30:54.495Z,98074.88
2023-04-28T03:35:57.742Z,98082.56
2023-04-28T03:41:01.835Z,98060.97
2023-04-28T03:46:07.467Z,98048.75
2023-04-28T03:51:11.061Z,98041.47
2023-04-28T03:56:15.553Z,98029.25
2023-04-28T04:01:18.996Z,98011.63
2023-04-28T04:06:24.311Z,98023.63
2023-04-28T04:17:47.776Z,98028.53
2023-04-28T04:22:51.115Z,98017.31
2023-04-28T04:27:55.508Z,98024.75
2023-04-28T04:32:58.271Z,98027.69
2023-04-28T04:38:01.617Z,98028.81
2023-04-28T04:43:05.953Z,98030.91
2023-04-28T04:48:14.658Z,98026.13
2023-04-28T04:53:18.331Z,98014.59
2023-04-28T04:58:23.180Z,98006.03
2023-04-28T05:03:46.493Z,98012.78
2023-04-28T05:08:50.696Z,98010.81
2023-04-28T05:13:55.410Z,98023.41
2023-04-28T05:18:59.407Z,98026.63
2023-04-28T05:24:03.719Z,98026.88
2023-04-28T05:29:08.141Z,98033.22
2023-04-28T05:34:11.640Z,98036.88
2023-04-28T05:39:15.555Z,98041.16
2023-04-28T05:44:19.933Z,98036.94
2023-04-28T05:49:24.548Z,98049.84
2023-04-28T05:54:29.595Z,98046.75
2023-04-28T05:59:35.574Z,98054.28
2023-04-28T06:04:42.419Z,98040.47
2023-04-28T06:09:45.679Z,98036.41
2023-04-28T06:14:49.791Z,98031.28
2023-04-28T06:19:54.423Z,98035.13
2023-04-28T06:24:57.262Z,98025.94
2023-04-28T06:30:10.527Z,98029.03
2023-04-28T06:35:14.411Z,98023.91
2023-04-28T06:40:17.284Z,98024.69
2023-04-28T06:45:32.680Z,98024.69
2023-04-28T06:50:35.667Z,98016.75
2023-04-28T06:55:42.608Z,97996.69
2023-04-28T07:00:46.772Z,97975.53
2023-04-28T07:05:51.330Z,97967.88
2023-04-28T07:10:54.053Z,98005.72
2023-04-28T07:15:58.240Z,98017.34
2023-04-28T07:21:03.363Z,98005.22
2023-04-28T07:26:09.625Z,98002.34
2023-04-28T07:31:14.705Z,98018.72
2023-04-28T07:36:17.669Z,98022.06
2023-04-28T07:41:20.513Z,98019.16
2023-04-28T07:46:26.692Z,98012.06
2023-04-28T07:51:30.775Z,98013.63
2023-04-28T07:56:34.977Z,98012.94
2023-04-28T08:01:39.888Z,98019.53
2023-04-28T08:06:45.665Z,98015.56
2023-04-28T08:11:48.741Z,98026.41
2023-04-28T08:16:53.675Z,98031.09
2023-04-28T08:21:56.415Z,98024.75
2023-04-28T08:26:59.285Z,98024.31
2023-04-28T08:32:03.368Z,98042.16
2023-04-28T08:37:06.831Z,98043.72
2023-04-28T08:42:10.824Z,98039.34
2023-04-28T08:47:16.715Z,98046.03
2023-04-28T08:52:21.787Z,98041.72
2023-04-28T08:57:27.885Z,98055.47
2023-04-28T09:02:32.297Z,98050.78
2023-04-28T09:07:35.428Z,98039.41
2023-04-28T09:12:40.276Z,98043.72
2023-04-28T09:17:51.734Z,98037.22
2023-04-28T09:22:56.098Z,98042.66
2023-04-28T09:27:58.843Z,98034.25
2023-04-28T09:33:10.663Z,98031.88
2023-04-28T09:38:14.791Z,98030.59
2023-04-28T09:43:25.789Z,98013.59
2023-04-28T09:48:32.829Z,98017.72
2023-04-28T09:53:36.437Z,98017.91
2023-04-28T09:58:43.836Z,98016.47
2023-04-28T10:03:53.954Z,98010.44
2023-04-28T10:08:58.622Z,98002.56
2023-04-28T10:14:01.699Z,97998.53
2023-04-28T10:19:07.270Z,97991.38
2023-04-28T10:24:19.380Z,97987.72
2023-04-28T10:29:25.849Z,97976.66
2023-04-28T10:34:31.485Z,97966.38
2023-04-28T10:39:35.167Z,97981.50
2023-04-28T10:44:44.698Z,97975.03
2023-04-28T10:50:13.898Z,97963.94
2023-04-28T10:55:33.130Z,97961.63
2023-04-28T11:00:40.890Z,97944.66
2023-04-28T11:06:25.648Z,97934.19
2023-04-28T11:11:29.903Z,97934.16
2023-04-28T11:16:33.849Z,97947.44
2023-04-28T11:21:37.964Z,97927.88
2023-04-28T11:26:42.864Z,97939.94
2023-04-28T11:31:51.288Z,97936.72
2023-04-28T11:36:56.249Z,97939.78
2023-04-28T11:42:01.380Z,97934.59
2023-04-28T11:47:06.255Z,97928.84
2023-04-28T11:52:11.452Z,97916.03
2023-04-28T11:57:22.840Z,97917.25
2023-04-28T12:02:30.076Z,97919.69
2023-04-28T12:07:42.829Z,97920.91
2023-04-28T12:12:52.659Z,97906.78
2023-04-28T12:17:57.635Z,97913.44
2023-04-28T12:23:02.542Z,97901.09
2023-04-28T12:28:08.872Z,97902.53
2023-04-28T12:33:23.923Z,97905.91
2023-04-28T12:38:28.367Z,97903.81
2023-04-28T12:43:31.514Z,97900.72
2023-04-28T12:48:35.921Z,97902.44
2023-04-28T12:53:41.656Z,97907.59
2023-04-28T12:58:44.371Z,97905.56
2023-04-28T13:03:49.102Z,97902.81
2023-04-28T13:08:53.534Z,97892.84
2023-04-28T13:13:56.975Z,97894.56
2023-04-28T13:19:01.199Z,97897.53
2023-04-28T13:24:09.676Z,97874.19
2023-04-28T13:29:12.951Z,97874.59
2023-04-28T13:34:17.805Z,97882.78
2023-04-28T13:39:22.064Z,97889.63
2023-04-28T13:44:24.920Z,97876.03
2023-04-28T13:49:29.025Z,97874.13
2023-04-28T13:54:34.273Z,97855.81
2023-04-28T13:59:37.242Z,97851.91
2023-04-28T14:04:41.179Z,97854.41
2023-04-28T14:09:46.222Z,97869.00
2023-04-28T14:14:50.278Z,97852.38
2023-04-28T14:19:53.073Z,97850.19
2023-04-28T14:24:57.223Z,97853.16
2023-04-28T14:30:03.239Z,97852.28
2023-04-28T14:35:07.075Z,97851.47
2023-04-28T14:40:12.799Z,97836.09
2023-04-28T14:45:17.405Z,97836.34
2023-04-28T14:50:20.980Z,97838.16
2023-04-28T14:55:25.087Z,97836.22
2023-04-28T15:00:29.843Z,97833.59
2023-04-28T15:05:33.528Z,97852.69
2023-04-28T15:10:40.655Z,97814.41
2023-04-28T15:15:43.377Z,97789.25
2023-04-28T15:20:46.103Z,97798.66
2023-04-28T15:25:54.886Z,97824.31
2023-04-28T15:30:57.689Z,97843.19
2023-04-28T15:36:01.005Z,97859.56
2023-04-28T15:41:05.597Z,97853.16
2023-04-28T15:46:09.367Z,97847.94
2023-04-28T15:51:12.749Z,97830.84
2023-04-28T15:56:19.548Z,97821.44
2023-04-28T16:01:25.537Z,97822.66
2023-04-28T16:06:29.076Z,97821.56
2023-04-28T16:11:34.032Z,97837.41
2023-04-28T16:16:37.755Z,97845.66
2023-04-28T16:21:40.577Z,97843.31
2023-04-28T16:26:47.057Z,97848.94
2023-04-28T16:31:51.193Z,97847.97
2023-04-28T16:36:54.969Z,97861.25
2023-04-28T16:42:00.785Z,97855.63
2023-04-28T16:47:03.759Z,97853.16
2023-04-28T16:52:07.094Z,97854.31
2023-04-28T16:57:12.679Z,97861.25
2023-04-28T17:02:16.149Z,97857.28
2023-04-28T17:07:19.039Z,97855.28
2023-04-28T17:12:23.403Z,97862.63
2023-04-28T17:17:26.141Z,97871.25
2023-04-28T17:22:30.250Z,97852.28
2023-04-28T17:27:34.645Z,97851.81
2023-04-28T17:32:37.485Z,97856.16
2023-04-28T17:37:40.296Z,97868.88
2023-04-28T17:42:44.530Z,97877.00
2023-04-28T17:47:47.343Z,97871.84
2023-04-28T17:52:50.128Z,97884.88
2023-04-28T17:57:54.168Z,97888.25
2023-04-28T18:02:56.980Z,97901.19
2023-04-28T18:08:03.635Z,97905.38
2023-04-28T18:13:08.761Z,97918.91
2023-04-28T18:18:11.737Z,97922.97
2023-04-28T18:23:15.536Z,97924.63
2023-04-28T18:28:19.889Z,97931.63
2023-04-28T18:33:25.759Z,97941.19
2023-04-28T18:38:30.884Z,97954.56
2023-04-28T18:43:35.034Z,97959.16
2023-04-28T18:48:38.316Z,97958.69
2023-04-28T18:53:41.176Z,97972.94
2023-04-28T18:58:48.557Z,97984.97
2023-04-28T19:03:51.601Z,97990.06
2023-04-28T19:08:54.607Z,97988.91
2023-04-28T19:13:58.892Z,97996.00
2023-04-28T19:19:02.183Z,98009.59
2023-04-28T19:24:05.220Z,98023.19
2023-04-28T19:29:09.376Z,98023.50
2023-04-28T19:34:13.603Z,98033.06
2023-04-28T19:39:17.468Z,98036.38
2023-04-28T19:44:22.437Z,98038.34
2023-04-28T19:49:25.382Z,98039.34
2023-04-28T19:54:28.978Z,98048.00
2023-04-28T19:59:34.166Z,98045.31
2023-04-28T20:04:37.682Z,98046.44
2023-04-28T20:09:41.112Z,98052.91
2023-04-28T20:14:45.404Z,98060.09
2023-04-28T20:19:48.833Z,98058.72
2023-04-28T20:24:52.431Z,98057.50
2023-04-28T20:29:56.562Z,98059.41
2023-04-28T20:34:59.320Z,98065.19
2023-04-28T20:40:02.369Z,98062.00
2023-04-28T20:45:12.539Z,98058.97
2023-04-28T20:50:15.604Z,98057.34
2023-04-28T21:08:45.428Z,98065.19
2023-04-28T21:13:48.172Z,98066.81
2023-04-28T21:18:51.471Z,98067.13
2023-04-28T21:23:55.520Z,98070.78
2023-04-28T21:28:59.949Z,98071.41
2023-04-28T21:34:03.181Z,98061.06
2023-04-28T21:39:07.623Z,98067.63
2023-04-28T21:44:10.387Z,98067.16
2023-04-28T21:49:13.460Z,98071.38
2023-04-28T21:54:18.421Z,98064.91
2023-04-28T21:59:22.505Z,98063.25
2023-04-28T22:04:25.554Z,98069.44
2023-04-28T22:09:29.747Z,98060.25
2023-04-28T22:14:40.577Z,98066.53
2023-04-28T22:19:44.355Z,98063.53
2023-04-28T22:24:49.978Z,98059.88
2023-04-28T22:29:52.881Z,98066.91
2023-04-28T22:34:55.705Z,98067.06
2023-04-28T22:39:59.816Z,98056.81
2023-04-28T22:45:03.714Z,98068.25
2023-04-28T22:50:08.420Z,98078.72
2023-04-28T22:55:13.147Z,98077.47
2023-04-28T23:00:17.573Z,98081.41
2023-04-28T23:05:20.382Z,98082.13
2023-04-28T23:10:24.708Z,98079.16
2023-04-28T23:15:27.450Z,98088.00
2023-04-28T23:20:30.515Z,98092.38
2023-04-28T23:25:34.658Z,98098.50
2023-04-28T23:30:37.747Z,98095.91
2023-04-28T23:35:41.796Z,98097.69
2023-04-28T23:40:46.268Z,98094.81
2023-04-28T23:45:49.038Z,98095.75
2023-04-28T23:50:51.767Z,98093.47
2023-04-28T23:55:56.181Z,98099.03
